Time;durP1;ratioP1;P1;durP2;ratioP2;P2;SDS_P1;SDS_P2;PMS_P1;PMS_P2;Temp;Humidity;BMP_temperature;BMP_pressure;BME280_temperature;BME280_humidity;BME280_pressure;Samples;Min_cycle;Max_cycle;Signal;HPM_P1;HPM_P2
2021/08/18 00:01:08;;;;;;;12.32;11.02;;;;;;;17.70;66.04;99664.03;6038381;23;20023;-81
2021/08/18 00:03:35;;;;;;;11.88;10.77;;;;;;;17.69;66.15;99659.69;6039282;23;20466;-81
2021/08/18 00:06:18;;;;;;;11.63;10.20;;;;;;;17.65;67.12;99666.25;6039084;23;20054;-81
2021/08/18 00:08:45;;;;;;;12.65;10.30;;;;;;;17.69;66.11;99659.69;6039300;23;20098;-81
2021/08/18 00:11:12;;;;;;;12.40;11.13;;;;;;;17.68;66.40;99663.34;6039065;23;20110;-81
2021/08/18 00:14:04;;;;;;;11.55;10.35;;;;;;;17.63;67.07;99661.06;6039060;23;20066;-81
2021/08/18 00:16:31;;;;;;;11.40;10.23;;;;;;;17.68;66.41;99666.81;6039356;23;20091;-81
2021/08/18 00:18:58;;;;;;;11.52;10.43;;;;;;;17.67;66.38;99667.81;6039010;23;20027;-81
2021/08/18 00:25:18;;;;;;;11.23;10.15;;;;;;;17.66;66.82;99667.94;6069306;23;20110;-80
2021/08/18 00:27:44;;;;;;;12.10;10.90;;;;;;;17.67;66.12;99666.94;6043984;23;20092;-81
2021/08/18 00:33:40;;;;;;;10.77;9.77;;;;;;;17.67;66.43;99661.63;6069094;23;20058;-81
2021/08/18 00:36:23;;;;;;;11.00;9.90;;;;;;;17.63;67.21;99668.19;6043714;23;20054;-81
2021/08/18 00:38:50;;;;;;;11.90;10.68;;;;;;;17.67;66.31;99666.94;6043593;23;20467;-81
2021/08/18 00:41:17;;;;;;;11.13;10.02;;;;;;;17.66;66.37;99662.59;6043758;23;20030;-81
2021/08/18 00:44:00;;;;;;;11.27;10.27;;;;;;;17.62;67.63;99655.88;6043950;23;20033;-81
2021/08/18 00:46:27;;;;;;;10.70;9.70;;;;;;;17.67;66.36;99661.63;6044248;23;20392;-81
2021/08/18 00:48:53;;;;;;;11.25;10.15;;;;;;;17.66;66.52;99660.81;6044064;23;20023;-81
2021/08/18 00:51:48;;;;;;;11.07;9.75;;;;;;;17.62;67.51;99663.84;6044126;23;20023;-81
2021/08/18 00:54:18;;;;;;;11.07;9.95;;;;;;;17.67;66.64;99658.97;6043672;23;20026;-81
2021/08/18 00:56:46;;;;;;;10.15;9.07;;;;;;;17.67;66.81;99657.16;6068870;23;20106;-81
2021/08/18 01:00:04;;;;;;;14.57;10.45;;;;;;;17.62;67.84;99659.38;6069210;23;20422;-81
2021/08/18 01:02:36;;;;;;;9.82;8.82;;;;;;;17.67;66.93;99661.63;6044005;23;20332;-81
2021/08/18 01:05:08;;;;;;;9.55;8.65;;;;;;;17.64;66.78;99648.59;6043542;23;20101;-81
2021/08/18 01:07:35;;;;;;;9.93;8.90;;;;;;;17.65;66.72;99653.78;6043438;23;20023;-78
2021/08/18 01:10:08;;;;;;;9.23;8.20;;;;;;;17.64;67.19;99651.28;6043197;23;20029;-81
2021/08/18 01:12:36;;;;;;;10.27;9.27;;;;;;;17.65;66.87;99659.09;6043394;23;20037;-81
2021/08/18 01:15:17;;;;;;;9.45;8.38;;;;;;;17.61;67.49;99652.38;6043248;23;20069;-81
2021/08/18 01:17:47;;;;;;;10.55;9.45;;;;;;;17.65;67.25;99650.28;6043352;23;20102;-81
2021/08/18 01:20:39;;;;;;;9.50;8.60;;;;;;;17.60;67.62;99650.69;6043256;23;20094;-81
2021/08/18 01:23:11;;;;;;;9.50;8.60;;;;;;;17.65;66.77;99647.63;6043351;23;20405;-81
2021/08/18 01:25:40;;;;;;;9.10;8.20;;;;;;;17.64;67.16;99654.75;6038270;23;20023;-81
2021/08/18 01:28:11;;;;;;;8.88;8.07;;;;;;;17.64;67.53;99659.25;6038851;23;20095;-81
2021/08/18 01:30:38;;;;;;;9.90;8.90;;;;;;;17.65;66.76;99655.59;6038805;23;20116;-81
2021/08/18 01:33:09;;;;;;;10.07;9.10;;;;;;;17.64;67.01;99654.75;6038359;23;20023;-81
2021/08/18 01:35:40;;;;;;;9.52;8.55;;;;;;;17.65;67.20;99658.28;6038560;23;20063;-81
2021/08/18 01:38:09;;;;;;;9.18;8.27;;;;;;;17.65;67.09;99658.28;6038645;23;20403;-81
2021/08/18 01:40:44;;;;;;;9.38;8.32;;;;;;;17.62;67.81;99656.72;6038971;23;20511;-81
2021/08/18 01:43:11;;;;;;;9.82;8.75;;;;;;;17.64;67.07;99657.41;6038546;23;20404;-81
2021/08/18 01:45:44;;;;;;;8.50;7.70;;;;;;;17.63;67.69;99657.53;6038098;23;20102;-81
2021/08/18 01:48:11;;;;;;;;;;;;;;;17.63;67.37;99653.06;6039173;23;20376;-81
2021/08/18 01:50:42;;;;;;;9.13;7.80;;;;;;;17.67;66.56;99650.97;6038646;23;19917;-81
2021/08/18 01:53:10;;;;;;;10.38;8.32;;;;;;;17.65;66.62;99656.44;6038113;23;20075;-81
2021/08/18 01:55:36;;;;;;;12.38;8.48;;;;;;;17.63;66.86;99653.06;6038541;23;20380;-81
2021/08/18 01:58:03;;;;;;;9.98;8.25;;;;;;;17.61;67.18;99659.53;6038795;23;20110;-81
2021/08/18 02:00:30;;;;;;;8.38;7.47;;;;;;;17.62;67.02;99650.53;6038373;23;20047;-81
2021/08/18 02:02:58;;;;;;;8.02;7.22;;;;;;;17.61;67.30;99660.38;6038123;23;20027;-81
2021/08/18 02:05:26;;;;;;;7.88;7.07;;;;;;;17.61;67.39;99662.19;6037993;23;20023;-78
2021/08/18 02:07:54;;;;;;;9.70;7.60;;;;;;;17.60;67.25;99664.00;6038138;23;20066;-78
2021/08/18 02:10:22;;;;;;;9.80;7.22;;;;;;;17.61;67.29;99657.72;6038186;23;20106;-78
2021/08/18 02:12:49;;;;;;;8.10;7.25;;;;;;;17.61;67.28;99651.53;6038034;23;20027;-78
2021/08/18 02:15:24;;;;;;;7.43;6.68;;;;;;;17.60;67.53;99650.69;6038008;23;20059;-78
2021/08/18 02:17:51;;;;;;;7.30;6.60;;;;;;;17.62;67.60;99653.22;6033469;23;20023;-81
2021/08/18 02:20:21;;;;;;;7.78;6.47;;;;;;;17.61;67.60;99651.53;6037515;23;20059;-81
2021/08/18 02:22:48;;;;;;;7.10;6.40;;;;;;;17.64;67.46;99651.28;6038876;23;20098;-78
2021/08/18 02:25:16;;;;;;;7.55;6.65;;;;;;;17.64;67.27;99657.41;6044497;23;20042;-81
2021/08/18 02:27:43;;;;;;;7.43;6.72;;;;;;;17.64;67.27;99651.28;6039783;23;20066;-81
2021/08/18 02:30:12;;;;;;;7.47;6.55;;;;;;;17.65;67.24;99655.59;6041571;23;20030;-81
2021/08/18 02:32:41;;;;;;;8.93;6.68;;;;;;;17.63;67.63;99646.91;6041199;23;20099;-81
2021/08/18 02:35:09;;;;;;;6.35;5.68;;;;;;;17.64;67.34;99651.28;6039460;23;20079;-81
2021/08/18 02:37:36;;;;;;;5.93;5.32;;;;;;;17.64;67.41;99646.78;6040095;23;20058;-78
2021/08/18 02:40:04;;;;;;;6.47;5.82;;;;;;;17.63;67.45;99647.75;6040118;23;20511;-78
2021/08/18 02:42:31;;;;;;;9.57;6.05;;;;;;;17.65;67.48;99642.31;6041542;23;20090;-78
2021/08/18 02:45:01;;;;;;;7.40;6.13;;;;;;;17.64;67.65;99648.59;6039518;23;20099;-78
2021/08/18 02:47:28;;;;;;;7.05;6.35;;;;;;;17.65;67.50;99636.97;6039750;23;20106;-78
2021/08/18 02:50:03;;;;;;;6.93;6.13;;;;;;;17.62;67.90;99635.44;6039942;23;20062;-80
2021/08/18 02:52:30;;;;;;;8.82;6.05;;;;;;;17.65;67.27;99637.81;6039781;23;20094;-81
2021/08/18 02:54:58;;;;;;;7.55;6.63;;;;;;;17.65;67.67;99642.31;6039431;23;20106;-81
2021/08/18 02:57:25;;;;;;;7.50;6.50;;;;;;;17.65;67.48;99636.97;6039636;23;20066;-81
2021/08/18 02:59:52;;;;;;;6.28;5.68;;;;;;;17.65;67.15;99643.13;6039991;23;20403;-80
2021/08/18 03:02:19;;;;;;;8.07;6.80;;;;;;;17.65;67.50;99647.63;6039982;23;20051;-81
2021/08/18 03:04:46;;;;;;;6.35;5.72;;;;;;;17.65;67.58;99643.13;6039371;23;20083;-81
2021/08/18 03:07:13;;;;;;;7.65;6.03;;;;;;;17.65;67.45;99642.31;6039964;23;20054;-81
2021/08/18 03:09:40;;;;;;;6.88;6.18;;;;;;;17.64;67.50;99641.44;6039911;23;20094;-82
2021/08/18 03:12:07;;;;;;;6.53;5.85;;;;;;;17.63;67.24;99641.56;6039270;23;20062;-81
2021/08/18 03:14:34;;;;;;;7.10;6.40;;;;;;;17.62;67.55;99638.09;6039102;23;20027;-81
2021/08/18 03:17:02;;;;;;;8.07;5.57;;;;;;;17.60;67.12;99631.22;6039916;23;20094;-81
2021/08/18 03:19:28;;;;;;;6.43;5.82;;;;;;;17.58;67.17;99634.84;6039481;23;20027;-81
2021/08/18 03:22:03;;;;;;;6.95;5.55;;;;;;;17.53;68.03;99636.25;6039666;23;20470;-81
2021/08/18 03:24:30;;;;;;;7.60;6.07;;;;;;;17.55;67.33;99636.94;6040836;23;20351;-81
2021/08/18 03:27:15;;;;;;;9.00;6.60;;;;;;;17.48;68.33;99636.66;6043305;23;20073;-81
2021/08/18 03:29:41;;;;;;;6.82;6.15;;;;;;;17.51;67.48;99631.06;6044731;23;20463;-81
2021/08/18 03:32:08;;;;;;;6.78;6.07;;;;;;;17.51;67.50;99635.53;6044121;23;20029;-81
2021/08/18 03:34:57;;;;;;;7.32;6.53;;;;;;;17.44;68.23;99638.75;6043908;23;20403;-81
2021/08/18 03:37:23;;;;;;;6.82;6.15;;;;;;;17.50;67.77;99645.34;6044265;23;20031;-81
2021/08/18 03:39:50;;;;;;;9.55;6.50;;;;;;;17.48;67.54;99634.00;6044147;23;20030;-81
2021/08/18 03:42:21;;;;;;;7.57;6.82;;;;;;;17.47;68.01;99636.78;6044526;23;20094;-81
2021/08/18 03:44:48;;;;;;;8.23;6.72;;;;;;;17.48;67.76;99636.66;6044236;23;20031;-81
2021/08/18 03:47:15;;;;;;;8.80;6.82;;;;;;;17.49;68.03;99643.66;6044486;23;20050;-81
2021/08/18 03:49:47;;;;;;;7.72;6.13;;;;;;;17.49;68.43;99645.47;6044051;23;20102;-81
2021/08/18 03:52:13;;;;;;;7.53;6.28;;;;;;;17.52;67.94;99639.88;6044446;23;20512;-81
2021/08/18 03:54:44;;;;;;;8.57;6.38;;;;;;;17.49;68.46;99643.66;6069114;23;20525;-81
2021/08/18 03:57:11;;;;;;;7.90;6.78;;;;;;;17.51;68.03;99639.03;6044523;23;20411;-81
2021/08/18 03:59:38;;;;;;;11.27;6.82;;;;;;;17.51;67.97;99633.72;6069065;23;20101;-81
2021/08/18 04:02:06;;;;;;;8.98;6.63;;;;;;;17.51;68.18;99641.72;6044031;23;20050;-81
2021/08/18 04:04:33;;;;;;;8.32;6.25;;;;;;;17.53;68.13;99641.56;6069124;23;20097;-81
2021/08/18 04:06:59;;;;;;;8.52;6.50;;;;;;;17.52;68.05;99638.06;6044003;23;20026;-81
2021/08/18 04:09:26;;;;;;;8.60;6.78;;;;;;;17.53;68.04;99637.06;6044283;23;20072;-81
2021/08/18 04:12:03;;;;;;;9.10;7.13;;;;;;;17.51;68.80;99644.38;6044173;23;20046;-81
2021/08/18 04:14:30;;;;;;;9.55;7.35;;;;;;;17.55;68.23;99639.59;6069104;23;20034;-78
2021/08/18 04:16:59;;;;;;;7.75;6.88;;;;;;;17.56;68.13;99652.78;6043680;23;20023;-78
2021/08/18 04:19:26;;;;;;;8.05;6.25;;;;;;;17.56;67.87;99650.13;6043772;23;20019;-78
2021/08/18 04:21:52;;;;;;;7.75;5.53;;;;;;;17.56;68.06;99650.13;6043820;23;20343;-78
2021/08/18 04:24:21;;;;;;;6.25;5.60;;;;;;;17.54;68.06;99651.25;6043687;23;20022;-81
2021/08/18 04:27:04;;;;;;;8.15;5.55;;;;;;;17.51;68.50;99656.81;6044123;23;20506;-81
2021/08/18 04:29:31;;;;;;;5.20;4.57;;;;;;;17.55;67.83;99658.22;6044333;23;20038;-81
2021/08/18 04:31:59;;;;;;;4.82;4.32;;;;;;;17.53;67.75;99666.34;6069060;23;20050;-81
2021/08/18 04:34:45;;;;;;;6.20;4.55;;;;;;;17.48;68.44;99657.94;6043638;23;20027;-81
2021/08/18 04:37:12;;;;;;;3.63;3.25;;;;;;;17.51;67.49;99655.00;6044110;23;20041;-81
2021/08/18 04:39:38;;;;;;;3.83;3.45;;;;;;;17.50;67.58;99653.34;6044016;23;20030;-80
2021/08/18 04:42:05;;;;;;;4.28;3.83;;;;;;;17.49;67.53;99656.94;6044091;23;20347;-81
2021/08/18 04:44:34;;;;;;;4.18;3.70;;;;;;;17.48;67.89;99655.28;6043436;23;20026;-78
2021/08/18 04:47:01;;;;;;;4.35;3.00;;;;;;;17.50;67.36;99649.81;6043905;23;20074;-81
2021/08/18 04:49:28;;;;;;;4.07;3.33;;;;;;;17.49;67.12;99651.63;6069070;23;20023;-81
2021/08/18 04:51:55;;;;;;;4.35;3.17;;;;;;;17.48;67.22;99657.94;6068591;23;20098;-81
2021/08/18 04:54:22;;;;;;;3.58;3.15;;;;;;;17.48;67.33;99643.78;6043432;23;20463;-81
2021/08/18 04:56:49;;;;;;;7.40;3.97;;;;;;;17.46;67.55;99651.91;6068587;23;20022;-81
2021/08/18 04:59:16;;;;;;;5.35;4.30;;;;;;;17.46;67.53;99646.59;6043897;23;20465;-81
2021/08/18 05:01:48;;;;;;;4.80;3.95;;;;;;;17.42;68.13;99645.19;6043940;23;20089;-81
2021/08/18 05:04:15;;;;;;;5.20;3.78;;;;;;;17.47;67.78;99655.41;6043241;23;20073;-81
2021/08/18 05:06:44;;;;;;;3.78;3.33;;;;;;;17.45;68.03;99652.88;6043792;23;20066;-81
2021/08/18 05:09:11;;;;;;;4.38;3.97;;;;;;;17.45;67.48;99650.22;6068662;23;20105;-81
2021/08/18 05:11:38;;;;;;;6.07;3.70;;;;;;;17.45;67.60;99658.19;6043362;23;20103;-81
2021/08/18 05:14:05;;;;;;;5.32;3.78;;;;;;;17.46;67.64;99649.25;6043013;23;20101;-78
2021/08/18 05:16:31;;;;;;;4.97;4.10;;;;;;;17.45;67.63;99652.88;6043752;23;20400;-78
2021/08/18 05:18:58;;;;;;;6.28;3.35;;;;;;;17.45;67.70;99656.38;6044474;23;20380;-78
2021/08/18 05:21:28;;;;;;;5.22;4.07;;;;;;;17.44;68.07;99657.38;6043718;23;20098;-78
2021/08/18 05:23:55;;;;;;;4.28;3.88;;;;;;;17.48;68.04;99663.25;6068051;23;20102;-78
2021/08/18 05:26:22;;;;;;;4.78;3.50;;;;;;;17.51;68.16;99662.16;6043346;23;20029;-78
2021/08/18 05:28:48;;;;;;;5.63;4.18;;;;;;;17.53;68.50;99663.69;6038380;23;20024;-78
2021/08/18 05:31:18;;;;;;;5.90;4.25;;;;;;;17.56;68.47;99663.44;6038539;23;20027;-78
2021/08/18 05:33:45;;;;;;;5.88;4.57;;;;;;;17.61;68.10;99664.84;6038510;23;20510;-78
2021/08/18 05:36:12;;;;;;;4.93;4.25;;;;;;;17.65;67.94;99668.91;6038471;23;20034;-78
2021/08/18 05:38:40;;;;;;;6.03;4.53;;;;;;;17.66;68.01;99668.78;6038343;23;20094;-78
2021/08/18 05:41:07;;;;;;;4.78;4.30;;;;;;;17.68;67.73;99666.00;6038481;23;20412;-78
2021/08/18 05:43:35;;;;;;;6.55;4.47;;;;;;;17.69;67.84;99665.00;6038600;23;20106;-78
2021/08/18 05:46:02;;;;;;;6.53;4.65;;;;;;;17.70;67.80;99670.19;6037886;23;20103;-78
2021/08/18 05:48:29;;;;;;;10.25;4.93;;;;;;;17.70;68.13;99666.69;6038430;23;20028;-78
2021/08/18 05:50:56;;;;;;;6.32;4.55;;;;;;;17.71;68.18;99671.03;6038318;23;20102;-78
2021/08/18 05:53:24;;;;;;;7.95;4.78;;;;;;;17.73;68.14;99678.88;6038335;23;20518;-78
2021/08/18 05:55:51;;;;;;;8.02;5.10;;;;;;;17.74;68.08;99675.22;6038903;23;20098;-78
2021/08/18 05:58:19;;;;;;;7.15;5.10;;;;;;;17.75;68.07;99675.09;6039560;23;20102;-78
2021/08/18 06:00:46;;;;;;;7.65;5.25;;;;;;;17.78;67.89;99677.50;6041908;23;20027;-78
2021/08/18 06:03:14;;;;;;;8.07;5.45;;;;;;;17.80;68.20;99675.53;6040308;23;20027;-78
2021/08/18 06:05:40;;;;;;;6.55;5.55;;;;;;;17.83;67.81;99682.44;6039921;23;20027;-79
2021/08/18 06:08:07;;;;;;;6.40;5.43;;;;;;;17.84;67.89;99678.78;6042313;23;20098;-79
2021/08/18 06:10:35;;;;;;;11.40;5.63;;;;;;;17.85;68.25;99680.44;6040953;23;20393;-79
2021/08/18 06:13:03;;;;;;;6.40;4.68;;;;;;;17.87;68.31;99681.16;6039944;23;20063;-79
2021/08/18 06:15:30;;;;;;;6.05;4.88;;;;;;;17.91;68.32;99677.22;6040058;23;20058;-79
2021/08/18 06:17:59;;;;;;;5.85;4.90;;;;;;;17.94;68.25;99679.63;6040040;23;20034;-82
2021/08/18 06:20:26;;;;;;;7.45;5.32;;;;;;;18.00;68.26;99678.25;6040045;23;20059;-82
2021/08/18 06:22:52;;;;;;;6.93;5.10;;;;;;;18.03;67.97;99672.66;6040235;23;20083;-82
2021/08/18 06:25:20;;;;;;;8.10;5.22;;;;;;;18.06;67.60;99672.34;6039564;23;20073;-82
2021/08/18 06:27:47;;;;;;;8.73;5.43;;;;;;;18.10;67.78;99680.94;6040140;23;20053;-82
2021/08/18 06:30:14;;;;;;;6.70;4.85;;;;;;;18.13;67.47;99675.31;6040189;23;20077;-79
2021/08/18 06:32:40;;;;;;;7.80;5.07;;;;;;;18.16;67.54;99680.38;6039800;23;20051;-79
2021/08/18 06:35:07;;;;;;;7.05;5.13;;;;;;;18.20;67.54;99670.28;6039820;23;20511;-82
2021/08/18 06:37:41;;;;;;;7.55;5.30;;;;;;;18.21;67.82;99672.00;6040308;23;20027;-82
2021/08/18 06:40:09;;;;;;;8.13;4.85;;;;;;;18.27;67.69;99666.09;6040051;23;20027;-82
2021/08/18 06:42:41;;;;;;;9.15;5.22;;;;;;;18.29;67.59;99666.81;6040227;23;20373;-82
2021/08/18 06:45:29;;;;;;;6.38;4.72;;;;;;;18.31;67.67;99670.16;6040909;23;20359;-82
2021/08/18 06:47:55;;;;;;;6.38;5.03;;;;;;;18.40;67.30;99667.63;6040166;23;20026;-82
2021/08/18 06:50:23;;;;;;;6.20;5.00;;;;;;;18.42;67.48;99676.31;6039727;23;20034;-82
2021/08/18 06:53:22;;;;;;;6.03;4.63;;;;;;;18.42;67.47;99678.97;6039513;23;20055;-82
2021/08/18 06:55:49;;;;;;;5.95;4.35;;;;;;;18.50;66.95;99681.78;6039525;23;20055;-82
2021/08/18 06:58:15;;;;;;;4.93;4.45;;;;;;;18.53;66.74;99678.00;6039703;23;20027;-82
2021/08/18 07:00:46;;;;;;;6.10;4.53;;;;;;;18.53;67.14;99683.31;6039520;23;20038;-82
2021/08/18 07:03:13;;;;;;;7.63;4.78;;;;;;;18.55;67.07;99682.22;6040893;23;20102;-82
2021/08/18 07:05:40;;;;;;;8.20;4.85;;;;;;;18.58;67.39;99676.59;6039786;23;20058;-82
2021/08/18 07:08:09;;;;;;;8.05;4.80;;;;;;;18.60;67.15;99681.78;6039887;23;20455;-82
2021/08/18 07:10:36;;;;;;;7.32;4.80;;;;;;;18.66;67.13;99680.38;6038870;23;20043;-82
2021/08/18 07:13:08;;;;;;;7.13;4.68;;;;;;;18.66;67.16;99681.25;6039393;23;20051;-81
2021/08/18 07:15:35;;;;;;;6.45;5.05;;;;;;;18.72;66.98;99686.00;6039816;23;20372;-81
2021/08/18 07:18:02;;;;;;;8.82;5.15;;;;;;;18.76;66.79;99681.19;6039471;23;20063;-78
2021/08/18 07:20:31;;;;;;;8.20;5.53;;;;;;;18.78;66.78;99684.59;6040084;23;20383;-81
2021/08/18 07:22:58;;;;;;;7.85;5.07;;;;;;;18.81;66.48;99686.97;6039351;23;20023;-82
2021/08/18 07:25:25;;;;;;;5.80;5.05;;;;;;;18.84;66.65;99685.84;6040631;23;20086;-82
2021/08/18 07:27:53;;;;;;;8.20;5.10;;;;;;;18.85;66.33;99685.69;6039569;23;20088;-82
2021/08/18 07:30:20;;;;;;;8.48;5.13;;;;;;;18.88;66.49;99688.06;6039751;23;20027;-82
2021/08/18 07:32:47;;;;;;;7.40;5.32;;;;;;;18.91;66.60;99686.94;6039697;23;20023;-82
2021/08/18 07:35:33;;;;;;;6.47;4.95;;;;;;;18.92;66.89;99695.78;6038995;23;20355;-82
2021/08/18 07:38:00;;;;;;;7.35;4.50;;;;;;;19.01;66.71;99689.59;6040971;23;20027;-82
2021/08/18 07:40:33;;;;;;;7.65;4.82;;;;;;;19.04;66.52;99685.78;6039732;23;20083;-82
2021/08/18 07:43:00;;;;;;;8.80;5.28;;;;;;;19.13;66.49;99693.78;6038993;23;20042;-82
2021/08/18 07:45:27;;;;;;;7.22;4.38;;;;;;;19.19;66.38;99687.03;6038943;23;20027;-82
2021/08/18 07:47:58;;;;;;;8.18;4.95;;;;;;;19.23;65.84;99690.25;6039610;23;20396;-82
2021/08/18 07:50:25;;;;;;;7.03;4.80;;;;;;;19.30;66.04;99685.16;6039020;23;20023;-82
2021/08/18 07:52:56;;;;;;;6.75;4.18;;;;;;;19.32;65.44;99678.69;6039014;23;20026;-82
2021/08/18 07:55:23;;;;;;;5.68;4.05;;;;;;;19.37;65.74;99681.75;6039288;23;20339;-82
2021/08/18 07:57:50;;;;;;;6.43;4.57;;;;;;;19.43;65.73;99684.84;6039395;23;20082;-82
2021/08/18 08:00:17;;;;;;;8.65;4.05;;;;;;;19.47;65.47;99686.25;6039367;23;20105;-81
2021/08/18 08:02:45;;;;;;;7.30;4.22;;;;;;;19.50;65.40;99694.78;6039294;23;20055;-81
2021/08/18 08:05:42;;;;;;;5.97;4.30;;;;;;;19.51;65.14;99693.78;6038729;23;20023;-81
2021/08/18 08:08:09;;;;;;;8.35;3.55;;;;;;;19.62;65.65;99682.06;6039385;23;20019;-81
2021/08/18 08:10:55;;;;;;;8.75;3.97;;;;;;;19.64;65.23;99687.28;6039306;23;20403;-82
2021/08/18 08:13:21;;;;;;;5.65;3.53;;;;;;;19.74;65.29;99689.91;6038683;23;20097;-81
2021/08/18 08:15:48;;;;;;;8.43;3.83;;;;;;;19.82;64.80;99683.81;6038985;23;20095;-82
2021/08/18 08:18:19;;;;;;;4.47;3.10;;;;;;;19.88;64.24;99692.06;6038959;23;20038;-82
2021/08/18 08:20:46;;;;;;;5.97;3.35;;;;;;;19.95;64.68;99689.63;6038693;23;20063;-82
2021/08/18 08:23:28;;;;;;;6.65;3.00;;;;;;;19.98;64.83;99681.34;6039317;23;20019;-82
2021/08/18 08:25:55;;;;;;;9.02;3.13;;;;;;;20.08;64.85;99686.63;6038623;23;20074;-82
2021/08/18 08:28:21;;;;;;;5.50;3.20;;;;;;;20.15;64.14;99686.88;6038840;23;20090;-82
2021/08/18 08:30:51;;;;;;;3.63;2.65;;;;;;;20.20;64.03;99694.41;6038732;23;20475;-82
2021/08/18 08:33:18;;;;;;;4.40;2.67;;;;;;;20.25;63.52;99700.13;6038879;23;20439;-82
2021/08/18 08:35:45;;;;;;;5.13;2.60;;;;;;;20.27;63.25;99700.84;6038512;23;20109;-82
2021/08/18 08:41:36;;;;;;;4.53;2.80;;;;;;;20.32;62.98;99695.88;6040164;23;20070;-82
2021/08/18 08:44:05;;;;;;;3.83;2.60;;;;;;;20.32;62.77;99690.50;6038380;23;20235;-82
2021/08/18 08:46:54;;;;;;;5.47;2.97;;;;;;;20.28;62.75;99690.00;6038743;23;20034;-82
2021/08/18 08:49:22;;;;;;;3.70;2.38;;;;;;;20.34;62.71;99693.91;6038932;23;20028;-82
2021/08/18 08:52:04;;;;;;;5.53;2.83;;;;;;;20.30;62.11;99703.22;6038784;23;20028;-82
2021/08/18 08:54:31;;;;;;;4.20;2.60;;;;;;;20.33;62.50;99700.22;6038325;23;20031;-82
2021/08/18 08:56:58;;;;;;;3.50;2.50;;;;;;;20.31;62.35;99702.22;6038642;23;20074;-81
2021/08/18 08:59:56;;;;;;;3.75;2.55;;;;;;;20.21;62.28;99698.75;6038627;23;20029;-82
2021/08/18 09:02:23;;;;;;;5.00;2.30;;;;;;;20.20;61.71;99702.41;6038428;23;20023;-82
2021/08/18 09:04:50;;;;;;;5.40;3.22;;;;;;;20.12;61.99;99706.72;6038339;23;20032;-82
2021/08/18 09:07:28;;;;;;;4.25;3.10;;;;;;;19.99;62.24;99704.38;6038457;23;20106;-82
2021/08/18 09:09:57;;;;;;;3.88;2.35;;;;;;;19.96;62.79;99707.31;6038475;23;20106;-81
2021/08/18 09:12:39;;;;;;;5.32;2.60;;;;;;;19.89;63.55;99708.94;6038403;23;20065;-81
2021/08/18 09:15:18;;;;;;;4.22;2.30;;;;;;;19.88;63.55;99704.56;6038485;23;20059;-81
2021/08/18 09:17:46;;;;;;;6.13;2.70;;;;;;;19.90;63.64;99708.78;6038797;23;20098;-81
2021/08/18 09:20:22;;;;;;;4.45;2.38;;;;;;;19.89;63.05;99707.09;6038382;23;20065;-81
2021/08/18 09:22:57;;;;;;;6.10;2.22;;;;;;;19.89;63.08;99711.59;6039643;23;20062;-82
2021/08/18 09:25:29;;;;;;;3.40;2.20;;;;;;;19.89;63.05;99709.75;6039696;23;20098;-81
2021/08/18 09:28:28;;;;;;;3.05;2.40;;;;;;;19.87;63.47;99713.56;6038273;23;20109;-78
2021/08/18 09:30:58;;;;;;;2.15;1.95;;;;;;;19.91;63.29;99707.78;6038972;23;20053;-79
2021/08/18 09:33:32;;;;;;;3.03;2.08;;;;;;;19.95;63.63;99707.50;6039550;23;20030;-79
2021/08/18 09:36:00;;;;;;;5.22;2.13;;;;;;;20.02;63.90;99704.09;6040335;23;20103;-79
2021/08/18 09:38:27;;;;;;;3.25;2.08;;;;;;;20.10;64.09;99700.66;6040525;23;20351;-79
2021/08/18 09:40:55;;;;;;;3.03;2.40;;;;;;;20.21;63.89;99699.59;6040578;23;20053;-79
2021/08/18 09:43:25;;;;;;;4.63;1.92;;;;;;;20.33;63.90;99702.88;6040546;23;20098;-79
2021/08/18 09:46:06;;;;;;;3.55;2.40;;;;;;;20.51;64.73;99696.69;6040265;23;20037;-79
2021/08/18 09:48:35;;;;;;;2.05;1.77;;;;;;;20.72;64.29;99703.56;6040248;23;20100;-79
2021/08/18 09:51:09;;;;;;;4.07;2.47;;;;;;;20.90;62.85;99703.56;6040388;23;20110;-81
2021/08/18 09:53:39;;;;;;;3.22;2.25;;;;;;;21.06;62.20;99697.47;6040437;23;20495;-81
2021/08/18 09:56:16;;;;;;;5.60;2.50;;;;;;;21.12;61.50;99704.84;6040658;23;20058;-81
2021/08/18 09:58:49;;;;;;;3.15;2.53;;;;;;;21.17;60.91;99694.53;6040244;23;20059;-79
2021/08/18 10:01:17;;;;;;;;;;;;;;;21.19;61.76;99705.06;6040639;23;20027;-79
2021/08/18 10:03:48;;;;;;;6.93;2.50;;;;;;;21.20;60.37;99715.63;6041187;23;19922;-79
2021/08/18 10:06:19;;;;;;;5.32;2.20;;;;;;;21.13;59.62;99706.56;6040209;23;20023;-82
2021/08/18 10:08:49;;;;;;;5.43;2.35;;;;;;;21.11;60.13;99708.53;6041875;23;20099;-82
2021/08/18 10:11:20;;;;;;;4.80;2.47;;;;;;;21.07;59.88;99699.13;6039944;23;20097;-79
2021/08/18 10:13:48;;;;;;;3.08;2.08;;;;;;;21.10;60.73;99698.84;6039924;23;20340;-81
2021/08/18 10:16:17;;;;;;;3.10;2.20;;;;;;;21.13;60.45;99703.03;6039991;23;20023;-83
2021/08/18 10:18:46;;;;;;;3.50;2.30;;;;;;;21.21;60.99;99698.56;6040100;23;20039;-82
2021/08/18 10:21:33;;;;;;;3.08;2.33;;;;;;;21.27;60.53;99691.72;6040477;23;20054;-82
2021/08/18 10:24:03;;;;;;;3.47;2.10;;;;;;;21.43;60.13;99692.81;6040981;23;20023;-82
2021/08/18 10:26:33;;;;;;;4.78;2.17;;;;;;;21.51;60.33;99687.50;6040410;23;20027;-80
2021/08/18 10:29:30;;;;;;;3.53;2.30;;;;;;;21.61;60.32;99692.75;6040895;23;20102;-80
2021/08/18 10:31:58;;;;;;;3.10;2.30;;;;;;;21.69;59.60;99691.91;6015522;23;20454;-79
2021/08/18 10:34:40;;;;;;;2.80;2.00;;;;;;;21.68;59.17;99690.25;6015968;23;20104;-80
2021/08/18 10:37:24;;;;;;;5.20;2.30;;;;;;;21.69;58.80;99687.41;6040114;23;20054;-79
2021/08/18 10:39:53;;;;;;;2.78;2.10;;;;;;;21.73;58.81;99699.50;6040228;23;20422;-79
2021/08/18 10:42:42;;;;;;;3.22;1.98;;;;;;;21.66;58.62;99690.41;6016713;23;20424;-80
2021/08/18 10:45:18;;;;;;;3.88;2.33;;;;;;;21.65;58.03;99691.41;6016224;23;20084;-80
2021/08/18 10:47:45;;;;;;;3.40;2.00;;;;;;;21.67;58.96;99694.75;6016706;23;20090;-80
2021/08/18 10:50:12;;;;;;;3.25;2.03;;;;;;;21.65;58.50;99699.44;6041035;23;20038;-80
2021/08/18 10:52:41;;;;;;;3.10;2.20;;;;;;;21.65;58.58;99693.25;6017007;23;20035;-80
2021/08/18 10:55:11;;;;;;;4.65;2.03;;;;;;;21.64;58.65;99699.59;6016134;23;20076;-80
2021/08/18 10:57:47;;;;;;;2.65;2.25;;;;;;;21.63;58.95;99692.59;6016132;23;20090;-80
2021/08/18 11:00:22;;;;;;;2.72;2.20;;;;;;;21.67;58.96;99693.91;6015879;23;20034;-80
2021/08/18 11:03:13;;;;;;;5.18;2.17;;;;;;;21.70;58.54;99689.09;6016325;23;20470;-83
2021/08/18 11:05:47;;;;;;;2.97;2.40;;;;;;;21.83;58.55;99693.19;6016001;23;20033;-83
2021/08/18 11:08:24;;;;;;;4.80;2.28;;;;;;;21.89;58.02;99684.47;6016529;23;20459;-80
2021/08/18 11:10:56;;;;;;;5.50;2.10;;;;;;;22.00;58.53;99686.00;5904906;24;20085;-80
2021/08/18 11:17:09;;;;;;;2.00;1.80;;;;;;;22.15;58.12;99688.88;5926861;24;20036;-84
2021/08/18 11:20:16;;;;;;;2.95;1.80;;;;;;;22.13;56.94;99685.53;5903861;24;20119;-84
2021/08/18 11:22:42;;;;;;;3.78;2.38;;;;;;;22.22;57.10;99686.38;5903834;24;20116;-83
2021/08/18 11:25:11;;;;;;;4.03;2.15;;;;;;;22.22;57.24;99691.75;5903542;24;20109;-83
2021/08/18 11:27:38;;;;;;;3.28;2.35;;;;;;;22.25;57.29;99680.69;5926333;24;20085;-83
2021/08/18 11:30:05;;;;;;;2.40;2.20;;;;;;;22.28;56.67;99677.69;6005885;23;20177;-83
2021/08/18 11:32:32;;;;;;;3.17;2.50;;;;;;;22.33;56.71;99682.53;6015897;23;20098;-83
2021/08/18 11:34:59;;;;;;;3.15;2.50;;;;;;;22.38;56.90;99680.19;6040205;23;20106;-83
2021/08/18 11:37:26;;;;;;;2.70;2.17;;;;;;;22.43;56.10;99680.53;6015716;23;20102;-83
2021/08/18 11:39:55;;;;;;;2.83;2.30;;;;;;;22.48;56.08;99678.19;6016113;23;20103;-83
2021/08/18 11:42:23;;;;;;;2.10;1.88;;;;;;;22.54;56.25;99673.97;6015699;23;20023;-83
2021/08/18 11:45:07;;;;;;;2.40;2.13;;;;;;;22.56;55.83;99681.91;6015446;23;20051;-83
2021/08/18 11:47:34;;;;;;;2.05;1.70;;;;;;;22.63;55.58;99690.97;6016209;23;20102;-82
2021/08/18 11:50:04;;;;;;;2.47;1.40;;;;;;;22.62;55.28;99687.44;6015879;23;20066;-82
2021/08/18 11:56:05;;;;;;;4.03;2.05;;;;;;;22.60;54.90;99684.09;6040177;23;20062;-82
2021/08/18 11:58:35;;;;;;;1.65;1.55;;;;;;;22.59;55.19;99681.56;6016077;23;20061;-82
2021/08/18 12:01:06;;;;;;;2.33;1.83;;;;;;;22.57;54.51;99680.91;6015627;23;20030;-82
2021/08/18 12:03:34;;;;;;;2.90;1.50;;;;;;;22.61;55.35;99687.63;6015623;23;20071;-82
2021/08/18 12:06:51;;;;;;;2.85;1.80;;;;;;;22.61;55.69;99668.84;6015651;23;20102;-82